sensor_id;sensor_type;location;lat;lon;timestamp;temperature;humidity
6098;DHT22;3077;50.922;6.584;2023-05-10T00:01:43;13.40;99.90
6098;DHT22;3077;50.922;6.584;2023-05-10T00:04:09;13.40;99.90
6098;DHT22;3077;50.922;6.584;2023-05-10T00:06:34;13.40;99.90
6098;DHT22;3077;50.922;6.584;2023-05-10T00:09:00;13.40;99.90
6098;DHT22;3077;50.922;6.584;2023-05-10T00:11:25;13.40;99.90
6098;DHT22;3077;50.922;6.584;2023-05-10T00:13:51;13.30;99.90
6098;DHT22;3077;50.922;6.584;2023-05-10T00:16:17;13.40;99.90
6098;DHT22;3077;50.922;6.584;2023-05-10T00:18:42;13.40;99.90
6098;DHT22;3077;50.922;6.584;2023-05-10T00:21:08;13.40;99.90
6098;DHT22;3077;50.922;6.584;2023-05-10T00:23:33;13.40;99.90
6098;DHT22;3077;50.922;6.584;2023-05-10T00:25:59;13.40;99.90
6098;DHT22;3077;50.922;6.584;2023-05-10T00:28:25;13.40;99.90
6098;DHT22;3077;50.922;6.584;2023-05-10T00:30:52;13.40;99.90
6098;DHT22;3077;50.922;6.584;2023-05-10T00:33:17;13.40;99.90
6098;DHT22;3077;50.922;6.584;2023-05-10T00:35:43;13.40;99.90
6098;DHT22;3077;50.922;6.584;2023-05-10T00:38:09;13.40;99.90
6098;DHT22;3077;50.922;6.584;2023-05-10T00:40:36;13.40;99.90
6098;DHT22;3077;50.922;6.584;2023-05-10T00:43:02;13.40;99.90
6098;DHT22;3077;50.922;6.584;2023-05-10T00:45:29;13.40;99.90
6098;DHT22;3077;50.922;6.584;2023-05-10T00:47:55;13.30;99.90
6098;DHT22;3077;50.922;6.584;2023-05-10T00:50:24;13.30;99.90
6098;DHT22;3077;50.922;6.584;2023-05-10T00:52:50;13.30;99.90
6098;DHT22;3077;50.922;6.584;2023-05-10T00:55:16;13.30;99.90
6098;DHT22;3077;50.922;6.584;2023-05-10T00:57:42;13.30;99.90
6098;DHT22;3077;50.922;6.584;2023-05-10T01:00:08;13.30;99.90
6098;DHT22;3077;50.922;6.584;2023-05-10T01:02:34;13.30;99.90
6098;DHT22;3077;50.922;6.584;2023-05-10T01:05:01;13.40;99.90
6098;DHT22;3077;50.922;6.584;2023-05-10T01:07:28;13.40;99.90
6098;DHT22;3077;50.922;6.584;2023-05-10T01:09:54;13.40;99.90
6098;DHT22;3077;50.922;6.584;2023-05-10T01:12:20;13.40;99.90
6098;DHT22;3077;50.922;6.584;2023-05-10T01:14:46;13.50;99.90
6098;DHT22;3077;50.922;6.584;2023-05-10T01:17:12;13.50;99.90
6098;DHT22;3077;50.922;6.584;2023-05-10T01:19:38;13.50;99.90
6098;DHT22;3077;50.922;6.584;2023-05-10T01:25:55;13.50;99.90
6098;DHT22;3077;50.922;6.584;2023-05-10T01:34:35;13.50;99.90
6098;DHT22;3077;50.922;6.584;2023-05-10T01:37:09;13.50;99.90
6098;DHT22;3077;50.922;6.584;2023-05-10T01:39:58;13.50;99.90
6098;DHT22;3077;50.922;6.584;2023-05-10T01:42:36;13.50;99.90
6098;DHT22;3077;50.922;6.584;2023-05-10T01:45:18;13.50;99.90
6098;DHT22;3077;50.922;6.584;2023-05-10T01:48:00;13.60;99.90
6098;DHT22;3077;50.922;6.584;2023-05-10T01:50:30;13.60;99.90
6098;DHT22;3077;50.922;6.584;2023-05-10T01:52:58;13.60;99.90
6098;DHT22;3077;50.922;6.584;2023-05-10T01:55:28;13.60;99.90
6098;DHT22;3077;50.922;6.584;2023-05-10T01:58:09;13.60;99.90
6098;DHT22;3077;50.922;6.584;2023-05-10T02:00:35;13.60;99.90
6098;DHT22;3077;50.922;6.584;2023-05-10T02:03:05;13.60;99.90
6098;DHT22;3077;50.922;6.584;2023-05-10T02:05:33;13.60;99.90
6098;DHT22;3077;50.922;6.584;2023-05-10T02:08:01;13.60;99.90
6098;DHT22;3077;50.922;6.584;2023-05-10T02:10:29;13.60;99.90
6098;DHT22;3077;50.922;6.584;2023-05-10T02:12:55;13.60;99.90
6098;DHT22;3077;50.922;6.584;2023-05-10T02:15:24;13.50;99.90
6098;DHT22;3077;50.922;6.584;2023-05-10T02:17:54;13.50;99.90
6098;DHT22;3077;50.922;6.584;2023-05-10T02:20:22;13.50;99.90
6098;DHT22;3077;50.922;6.584;2023-05-10T02:22:51;13.40;99.90
6098;DHT22;3077;50.922;6.584;2023-05-10T02:25:19;13.40;99.90
6098;DHT22;3077;50.922;6.584;2023-05-10T02:27:46;13.40;99.90
6098;DHT22;3077;50.922;6.584;2023-05-10T02:30:13;13.40;99.90
6098;DHT22;3077;50.922;6.584;2023-05-10T02:32:39;13.40;99.90
6098;DHT22;3077;50.922;6.584;2023-05-10T02:35:05;13.40;99.90
6098;DHT22;3077;50.922;6.584;2023-05-10T02:37:34;13.40;99.90
6098;DHT22;3077;50.922;6.584;2023-05-10T02:40:00;13.40;99.90
6098;DHT22;3077;50.922;6.584;2023-05-10T02:42:29;13.40;99.90
6098;DHT22;3077;50.922;6.584;2023-05-10T02:45:00;13.40;99.90
6098;DHT22;3077;50.922;6.584;2023-05-10T02:47:27;13.40;99.90
6098;DHT22;3077;50.922;6.584;2023-05-10T02:49:53;13.40;99.90
6098;DHT22;3077;50.922;6.584;2023-05-10T02:52:24;13.40;99.90
6098;DHT22;3077;50.922;6.584;2023-05-10T02:54:54;13.50;99.90
6098;DHT22;3077;50.922;6.584;2023-05-10T02:57:26;13.50;99.90
6098;DHT22;3077;50.922;6.584;2023-05-10T02:59:52;13.60;99.90
6098;DHT22;3077;50.922;6.584;2023-05-10T03:02:18;13.50;99.90
6098;DHT22;3077;50.922;6.584;2023-05-10T03:04:45;13.60;99.90
6098;DHT22;3077;50.922;6.584;2023-05-10T03:07:10;13.60;99.90
6098;DHT22;3077;50.922;6.584;2023-05-10T03:09:36;13.50;99.90
6098;DHT22;3077;50.922;6.584;2023-05-10T03:14:42;13.50;99.90
6098;DHT22;3077;50.922;6.584;2023-05-10T03:17:30;13.50;99.90
6098;DHT22;3077;50.922;6.584;2023-05-10T03:19:58;13.60;99.90
6098;DHT22;3077;50.922;6.584;2023-05-10T03:22:28;13.60;99.90
6098;DHT22;3077;50.922;6.584;2023-05-10T03:24:56;13.60;99.90
6098;DHT22;3077;50.922;6.584;2023-05-10T03:27:26;13.60;99.90
6098;DHT22;3077;50.922;6.584;2023-05-10T03:29:53;13.50;99.90
6098;DHT22;3077;50.922;6.584;2023-05-10T03:32:20;13.50;99.90
6098;DHT22;3077;50.922;6.584;2023-05-10T03:34:45;13.50;99.90
6098;DHT22;3077;50.922;6.584;2023-05-10T03:37:11;13.50;99.90
6098;DHT22;3077;50.922;6.584;2023-05-10T03:39:37;13.50;99.90
6098;DHT22;3077;50.922;6.584;2023-05-10T03:42:02;13.40;99.90
6098;DHT22;3077;50.922;6.584;2023-05-10T03:44:28;13.40;99.90
6098;DHT22;3077;50.922;6.584;2023-05-10T03:46:53;13.40;99.90
6098;DHT22;3077;50.922;6.584;2023-05-10T03:49:19;13.40;99.90
6098;DHT22;3077;50.922;6.584;2023-05-10T03:51:45;13.40;99.90
6098;DHT22;3077;50.922;6.584;2023-05-10T03:54:10;13.40;99.90
6098;DHT22;3077;50.922;6.584;2023-05-10T03:56:36;13.30;99.90
6098;DHT22;3077;50.922;6.584;2023-05-10T03:59:01;13.30;99.90
6098;DHT22;3077;50.922;6.584;2023-05-10T04:01:33;13.30;99.90
6098;DHT22;3077;50.922;6.584;2023-05-10T04:03:58;13.20;99.90
6098;DHT22;3077;50.922;6.584;2023-05-10T04:06:24;13.30;99.90
6098;DHT22;3077;50.922;6.584;2023-05-10T04:08:49;13.30;99.90
6098;DHT22;3077;50.922;6.584;2023-05-10T04:11:15;13.40;99.90
6098;DHT22;3077;50.922;6.584;2023-05-10T04:13:40;13.30;99.90
6098;DHT22;3077;50.922;6.584;2023-05-10T04:16:06;13.30;99.90
6098;DHT22;3077;50.922;6.584;2023-05-10T04:18:32;13.30;99.90
6098;DHT22;3077;50.922;6.584;2023-05-10T04:20:59;13.30;99.90
6098;DHT22;3077;50.922;6.584;2023-05-10T04:23:24;13.30;99.90
6098;DHT22;3077;50.922;6.584;2023-05-10T04:25:50;13.40;99.90
6098;DHT22;3077;50.922;6.584;2023-05-10T04:28:15;13.40;99.90
6098;DHT22;3077;50.922;6.584;2023-05-10T04:30:41;13.40;99.90
6098;DHT22;3077;50.922;6.584;2023-05-10T04:33:06;13.40;99.90
6098;DHT22;3077;50.922;6.584;2023-05-10T04:35:32;13.40;99.90
6098;DHT22;3077;50.922;6.584;2023-05-10T04:37:58;13.40;99.90
6098;DHT22;3077;50.922;6.584;2023-05-10T04:40:23;13.40;99.90
6098;DHT22;3077;50.922;6.584;2023-05-10T04:42:49;13.30;99.90
6098;DHT22;3077;50.922;6.584;2023-05-10T04:45:14;13.30;99.90
6098;DHT22;3077;50.922;6.584;2023-05-10T04:47:40;13.20;99.90
6098;DHT22;3077;50.922;6.584;2023-05-10T04:50:06;13.30;99.90
6098;DHT22;3077;50.922;6.584;2023-05-10T04:52:32;13.30;99.90
6098;DHT22;3077;50.922;6.584;2023-05-10T04:54:58;13.30;99.90
6098;DHT22;3077;50.922;6.584;2023-05-10T04:57:23;13.30;99.90
6098;DHT22;3077;50.922;6.584;2023-05-10T04:59:49;13.40;99.90
6098;DHT22;3077;50.922;6.584;2023-05-10T05:02:14;13.40;99.90
6098;DHT22;3077;50.922;6.584;2023-05-10T05:04:40;13.30;99.90
6098;DHT22;3077;50.922;6.584;2023-05-10T05:07:06;13.30;99.90
6098;DHT22;3077;50.922;6.584;2023-05-10T05:09:31;13.30;99.90
6098;DHT22;3077;50.922;6.584;2023-05-10T05:11:57;13.30;99.90
6098;DHT22;3077;50.922;6.584;2023-05-10T05:14:23;13.30;99.90
6098;DHT22;3077;50.922;6.584;2023-05-10T05:16:51;13.30;99.90
6098;DHT22;3077;50.922;6.584;2023-05-10T05:19:16;13.30;99.90
6098;DHT22;3077;50.922;6.584;2023-05-10T05:21:42;13.30;99.90
6098;DHT22;3077;50.922;6.584;2023-05-10T05:24:08;13.30;99.90
6098;DHT22;3077;50.922;6.584;2023-05-10T05:26:35;13.30;99.90
6098;DHT22;3077;50.922;6.584;2023-05-10T05:29:01;13.40;99.90
6098;DHT22;3077;50.922;6.584;2023-05-10T05:31:27;13.40;99.90
6098;DHT22;3077;50.922;6.584;2023-05-10T05:33:53;13.40;99.90
6098;DHT22;3077;50.922;6.584;2023-05-10T05:36:18;13.40;99.90
6098;DHT22;3077;50.922;6.584;2023-05-10T05:38:44;13.50;99.90
6098;DHT22;3077;50.922;6.584;2023-05-10T05:41:09;13.40;99.90
6098;DHT22;3077;50.922;6.584;2023-05-10T05:43:35;13.50;99.90
6098;DHT22;3077;50.922;6.584;2023-05-10T05:46:00;13.50;99.90
6098;DHT22;3077;50.922;6.584;2023-05-10T05:48:26;13.50;99.90
6098;DHT22;3077;50.922;6.584;2023-05-10T05:50:55;13.50;99.90
6098;DHT22;3077;50.922;6.584;2023-05-10T05:53:22;13.50;99.90
6098;DHT22;3077;50.922;6.584;2023-05-10T05:55:57;13.50;99.90
6098;DHT22;3077;50.922;6.584;2023-05-10T05:58:24;13.40;99.90
6098;DHT22;3077;50.922;6.584;2023-05-10T06:00:51;13.40;99.90
6098;DHT22;3077;50.922;6.584;2023-05-10T06:03:17;13.40;99.90
6098;DHT22;3077;50.922;6.584;2023-05-10T06:05:43;13.40;99.90
6098;DHT22;3077;50.922;6.584;2023-05-10T06:08:09;13.40;99.90
6098;DHT22;3077;50.922;6.584;2023-05-10T06:10:35;13.40;99.90
6098;DHT22;3077;50.922;6.584;2023-05-10T06:13:01;13.40;99.90
6098;DHT22;3077;50.922;6.584;2023-05-10T06:15:27;13.40;99.90
6098;DHT22;3077;50.922;6.584;2023-05-10T06:17:52;13.40;99.90
6098;DHT22;3077;50.922;6.584;2023-05-10T06:20:18;13.40;99.90
6098;DHT22;3077;50.922;6.584;2023-05-10T06:22:43;13.40;99.90
6098;DHT22;3077;50.922;6.584;2023-05-10T06:25:09;13.40;99.90
6098;DHT22;3077;50.922;6.584;2023-05-10T06:27:35;13.40;99.90
6098;DHT22;3077;50.922;6.584;2023-05-10T06:30:01;13.40;99.90
6098;DHT22;3077;50.922;6.584;2023-05-10T06:32:28;13.50;99.90
6098;DHT22;3077;50.922;6.584;2023-05-10T06:34:53;13.40;99.90
6098;DHT22;3077;50.922;6.584;2023-05-10T06:37:19;13.40;99.90
6098;DHT22;3077;50.922;6.584;2023-05-10T06:39:44;13.40;99.90
6098;DHT22;3077;50.922;6.584;2023-05-10T06:42:10;13.40;99.90
6098;DHT22;3077;50.922;6.584;2023-05-10T06:44:36;13.50;99.90
6098;DHT22;3077;50.922;6.584;2023-05-10T06:47:01;13.50;99.90
6098;DHT22;3077;50.922;6.584;2023-05-10T06:49:27;13.50;99.90
6098;DHT22;3077;50.922;6.584;2023-05-10T06:51:52;13.50;99.90
6098;DHT22;3077;50.922;6.584;2023-05-10T06:54:18;13.50;99.90
6098;DHT22;3077;50.922;6.584;2023-05-10T06:56:44;13.50;99.90
6098;DHT22;3077;50.922;6.584;2023-05-10T06:59:10;13.50;99.90
6098;DHT22;3077;50.922;6.584;2023-05-10T07:01:35;13.50;99.90
6098;DHT22;3077;50.922;6.584;2023-05-10T07:04:01;13.40;99.90
6098;DHT22;3077;50.922;6.584;2023-05-10T07:06:26;13.60;99.90
6098;DHT22;3077;50.922;6.584;2023-05-10T07:08:52;13.60;99.90
6098;DHT22;3077;50.922;6.584;2023-05-10T07:11:18;13.60;99.90
6098;DHT22;3077;50.922;6.584;2023-05-10T07:13:43;13.60;99.90
6098;DHT22;3077;50.922;6.584;2023-05-10T07:16:11;13.60;99.90
6098;DHT22;3077;50.922;6.584;2023-05-10T07:18:37;13.60;99.90
6098;DHT22;3077;50.922;6.584;2023-05-10T07:21:03;13.60;99.90
6098;DHT22;3077;50.922;6.584;2023-05-10T07:23:29;13.50;99.90
6098;DHT22;3077;50.922;6.584;2023-05-10T07:25:55;13.50;99.90
6098;DHT22;3077;50.922;6.584;2023-05-10T07:28:22;13.40;99.90
6098;DHT22;3077;50.922;6.584;2023-05-10T07:30:49;13.40;99.90
6098;DHT22;3077;50.922;6.584;2023-05-10T07:33:15;13.40;99.90
6098;DHT22;3077;50.922;6.584;2023-05-10T07:35:41;13.50;99.90
6098;DHT22;3077;50.922;6.584;2023-05-10T07:38:07;13.50;99.90
6098;DHT22;3077;50.922;6.584;2023-05-10T07:40:32;13.50;99.90
6098;DHT22;3077;50.922;6.584;2023-05-10T07:42:58;13.50;99.90
6098;DHT22;3077;50.922;6.584;2023-05-10T07:45:25;13.50;99.90
6098;DHT22;3077;50.922;6.584;2023-05-10T07:47:50;13.40;99.90
6098;DHT22;3077;50.922;6.584;2023-05-10T07:50:16;13.40;99.90
6098;DHT22;3077;50.922;6.584;2023-05-10T07:52:42;13.50;99.90
6098;DHT22;3077;50.922;6.584;2023-05-10T07:55:08;13.50;99.90
6098;DHT22;3077;50.922;6.584;2023-05-10T07:57:34;13.50;99.90
6098;DHT22;3077;50.922;6.584;2023-05-10T08:00:00;13.60;99.90
6098;DHT22;3077;50.922;6.584;2023-05-10T08:02:25;13.60;99.90
6098;DHT22;3077;50.922;6.584;2023-05-10T08:04:51;13.70;99.90
6098;DHT22;3077;50.922;6.584;2023-05-10T08:07:17;13.70;99.90
6098;DHT22;3077;50.922;6.584;2023-05-10T08:09:42;13.80;99.90
6098;DHT22;3077;50.922;6.584;2023-05-10T08:12:08;13.80;99.90
6098;DHT22;3077;50.922;6.584;2023-05-10T08:14:34;13.90;99.90
6098;DHT22;3077;50.922;6.584;2023-05-10T08:17:02;14.00;99.90
6098;DHT22;3077;50.922;6.584;2023-05-10T08:19:27;14.10;99.90
6098;DHT22;3077;50.922;6.584;2023-05-10T08:21:53;14.20;99.90
6098;DHT22;3077;50.922;6.584;2023-05-10T08:24:21;14.30;99.90
6098;DHT22;3077;50.922;6.584;2023-05-10T08:26:46;14.40;99.90
6098;DHT22;3077;50.922;6.584;2023-05-10T08:29:13;14.40;99.90
6098;DHT22;3077;50.922;6.584;2023-05-10T08:31:39;14.60;99.90
6098;DHT22;3077;50.922;6.584;2023-05-10T08:34:04;14.80;99.90
6098;DHT22;3077;50.922;6.584;2023-05-10T08:36:30;14.80;99.90
6098;DHT22;3077;50.922;6.584;2023-05-10T08:38:57;14.70;99.90
6098;DHT22;3077;50.922;6.584;2023-05-10T08:41:24;14.80;99.90
6098;DHT22;3077;50.922;6.584;2023-05-10T08:43:52;14.80;99.90
6098;DHT22;3077;50.922;6.584;2023-05-10T08:46:19;14.60;99.90
6098;DHT22;3077;50.922;6.584;2023-05-10T08:48:46;14.50;99.90
6098;DHT22;3077;50.922;6.584;2023-05-10T08:51:20;14.50;99.90
6098;DHT22;3077;50.922;6.584;2023-05-10T08:53:47;14.40;99.90
6098;DHT22;3077;50.922;6.584;2023-05-10T08:56:13;14.30;99.90
6098;DHT22;3077;50.922;6.584;2023-05-10T08:58:41;14.20;99.90
6098;DHT22;3077;50.922;6.584;2023-05-10T09:01:07;14.20;99.90
6098;DHT22;3077;50.922;6.584;2023-05-10T09:03:34;14.20;99.90
6098;DHT22;3077;50.922;6.584;2023-05-10T09:06:00;14.20;99.90
6098;DHT22;3077;50.922;6.584;2023-05-10T09:08:26;14.20;99.90
6098;DHT22;3077;50.922;6.584;2023-05-10T09:10:53;14.20;99.90
6098;DHT22;3077;50.922;6.584;2023-05-10T09:13:19;14.30;99.90
6098;DHT22;3077;50.922;6.584;2023-05-10T09:15:45;14.20;99.90
6098;DHT22;3077;50.922;6.584;2023-05-10T09:18:11;14.30;99.90
6098;DHT22;3077;50.922;6.584;2023-05-10T09:20:37;14.30;99.90
6098;DHT22;3077;50.922;6.584;2023-05-10T09:23:03;14.50;99.90
6098;DHT22;3077;50.922;6.584;2023-05-10T09:25:28;14.60;99.90
6098;DHT22;3077;50.922;6.584;2023-05-10T09:27:55;14.60;99.90
6098;DHT22;3077;50.922;6.584;2023-05-10T09:30:26;14.80;99.90
6098;DHT22;3077;50.922;6.584;2023-05-10T09:32:52;14.80;99.90
6098;DHT22;3077;50.922;6.584;2023-05-10T09:35:20;14.80;99.90
6098;DHT22;3077;50.922;6.584;2023-05-10T09:37:49;14.90;99.90
6098;DHT22;3077;50.922;6.584;2023-05-10T09:40:20;14.80;99.90
6098;DHT22;3077;50.922;6.584;2023-05-10T09:42:58;14.80;99.90
6098;DHT22;3077;50.922;6.584;2023-05-10T09:45:26;14.70;99.90
6098;DHT22;3077;50.922;6.584;2023-05-10T09:47:52;14.70;99.90
6098;DHT22;3077;50.922;6.584;2023-05-10T09:50:19;14.70;99.90
6098;DHT22;3077;50.922;6.584;2023-05-10T09:52:51;14.80;99.90
6098;DHT22;3077;50.922;6.584;2023-05-10T09:55:19;14.80;99.90
6098;DHT22;3077;50.922;6.584;2023-05-10T09:57:46;14.80;99.90
6098;DHT22;3077;50.922;6.584;2023-05-10T10:00:19;14.70;99.90
6098;DHT22;3077;50.922;6.584;2023-05-10T10:02:46;14.70;99.90
6098;DHT22;3077;50.922;6.584;2023-05-10T10:05:13;14.60;99.90
6098;DHT22;3077;50.922;6.584;2023-05-10T10:07:39;14.70;99.90
6098;DHT22;3077;50.922;6.584;2023-05-10T10:10:05;14.80;99.90
6098;DHT22;3077;50.922;6.584;2023-05-10T10:12:36;14.80;99.90
6098;DHT22;3077;50.922;6.584;2023-05-10T10:15:02;15.00;99.90
6098;DHT22;3077;50.922;6.584;2023-05-10T10:17:30;15.20;99.90
6098;DHT22;3077;50.922;6.584;2023-05-10T10:19:57;15.30;99.90
6098;DHT22;3077;50.922;6.584;2023-05-10T10:22:23;15.40;99.90
6098;DHT22;3077;50.922;6.584;2023-05-10T10:24:50;15.70;99.90
6098;DHT22;3077;50.922;6.584;2023-05-10T10:27:33;15.60;99.90
6098;DHT22;3077;50.922;6.584;2023-05-10T10:33:21;15.90;99.90
6098;DHT22;3077;50.922;6.584;2023-05-10T10:35:34;16.10;99.90
6098;DHT22;3077;50.922;6.584;2023-05-10T10:38:00;16.40;99.90
6098;DHT22;3077;50.922;6.584;2023-05-10T10:40:27;16.50;99.90
6098;DHT22;3077;50.922;6.584;2023-05-10T10:42:54;16.70;99.90
6098;DHT22;3077;50.922;6.584;2023-05-10T10:45:20;16.90;99.90
6098;DHT22;3077;50.922;6.584;2023-05-10T10:47:46;16.90;99.90
6098;DHT22;3077;50.922;6.584;2023-05-10T10:50:12;17.00;99.90
6098;DHT22;3077;50.922;6.584;2023-05-10T10:52:44;16.80;99.90
6098;DHT22;3077;50.922;6.584;2023-05-10T10:55:18;16.70;99.90
6098;DHT22;3077;50.922;6.584;2023-05-10T10:57:49;16.70;99.90
6098;DHT22;3077;50.922;6.584;2023-05-10T11:00:29;16.80;99.90
6098;DHT22;3077;50.922;6.584;2023-05-10T11:03:06;16.90;99.90
6098;DHT22;3077;50.922;6.584;2023-05-10T11:05:36;16.80;99.90
6098;DHT22;3077;50.922;6.584;2023-05-10T11:08:30;16.80;99.90
6098;DHT22;3077;50.922;6.584;2023-05-10T11:13:34;16.90;99.90
6098;DHT22;3077;50.922;6.584;2023-05-10T11:16:22;17.10;99.90
6098;DHT22;3077;50.922;6.584;2023-05-10T11:19:01;17.30;99.90
6098;DHT22;3077;50.922;6.584;2023-05-10T11:21:28;17.50;99.90
6098;DHT22;3077;50.922;6.584;2023-05-10T11:23:58;17.80;99.90
6098;DHT22;3077;50.922;6.584;2023-05-10T11:26:36;18.00;99.90
6098;DHT22;3077;50.922;6.584;2023-05-10T11:29:02;18.10;99.90
6098;DHT22;3077;50.922;6.584;2023-05-10T11:31:30;17.90;99.90
6098;DHT22;3077;50.922;6.584;2023-05-10T11:33:57;17.80;99.90
6098;DHT22;3077;50.922;6.584;2023-05-10T11:36:25;18.00;99.90
6098;DHT22;3077;50.922;6.584;2023-05-10T11:38:51;18.20;99.90
6098;DHT22;3077;50.922;6.584;2023-05-10T11:41:18;18.40;99.90
6098;DHT22;3077;50.922;6.584;2023-05-10T11:43:46;18.30;99.90
6098;DHT22;3077;50.922;6.584;2023-05-10T11:46:14;18.40;99.90
6098;DHT22;3077;50.922;6.584;2023-05-10T11:48:40;18.40;99.90
6098;DHT22;3077;50.922;6.584;2023-05-10T11:51:07;18.50;99.90
6098;DHT22;3077;50.922;6.584;2023-05-10T11:53:33;18.40;99.90
6098;DHT22;3077;50.922;6.584;2023-05-10T11:56:11;18.50;99.90
6098;DHT22;3077;50.922;6.584;2023-05-10T11:58:38;18.30;99.90
6098;DHT22;3077;50.922;6.584;2023-05-10T12:01:05;18.20;99.90
6098;DHT22;3077;50.922;6.584;2023-05-10T12:03:31;18.10;99.90
6098;DHT22;3077;50.922;6.584;2023-05-10T12:05:58;18.10;99.90
6098;DHT22;3077;50.922;6.584;2023-05-10T12:08:28;18.00;99.90
6098;DHT22;3077;50.922;6.584;2023-05-10T12:11:07;18.00;99.90
6098;DHT22;3077;50.922;6.584;2023-05-10T12:13:39;18.00;99.90
6098;DHT22;3077;50.922;6.584;2023-05-10T12:16:26;17.90;99.90
6098;DHT22;3077;50.922;6.584;2023-05-10T12:18:55;17.80;99.90
6098;DHT22;3077;50.922;6.584;2023-05-10T12:21:21;17.60;99.90
6098;DHT22;3077;50.922;6.584;2023-05-10T12:23:53;17.30;99.90
6098;DHT22;3077;50.922;6.584;2023-05-10T12:26:22;17.20;99.90
6098;DHT22;3077;50.922;6.584;2023-05-10T12:28:48;17.10;99.90
6098;DHT22;3077;50.922;6.584;2023-05-10T12:31:13;17.00;99.90
6098;DHT22;3077;50.922;6.584;2023-05-10T12:33:43;17.10;99.90
6098;DHT22;3077;50.922;6.584;2023-05-10T12:36:11;17.20;99.90
6098;DHT22;3077;50.922;6.584;2023-05-10T12:38:38;17.40;99.90
6098;DHT22;3077;50.922;6.584;2023-05-10T12:41:06;17.50;99.90
6098;DHT22;3077;50.922;6.584;2023-05-10T12:43:32;17.80;99.90
6098;DHT22;3077;50.922;6.584;2023-05-10T12:46:10;18.10;99.90
6098;DHT22;3077;50.922;6.584;2023-05-10T12:48:37;18.20;99.90
6098;DHT22;3077;50.922;6.584;2023-05-10T12:51:04;18.20;99.90
6098;DHT22;3077;50.922;6.584;2023-05-10T12:53:30;18.20;99.90
6098;DHT22;3077;50.922;6.584;2023-05-10T12:55:56;18.10;99.90
6098;DHT22;3077;50.922;6.584;2023-05-10T12:58:22;18.10;99.90
6098;DHT22;3077;50.922;6.584;2023-05-10T13:00:48;17.90;99.90
6098;DHT22;3077;50.922;6.584;2023-05-10T13:03:14;17.90;99.90
6098;DHT22;3077;50.922;6.584;2023-05-10T13:05:40;18.00;99.90
6098;DHT22;3077;50.922;6.584;2023-05-10T13:08:06;18.20;99.90
6098;DHT22;3077;50.922;6.584;2023-05-10T13:10:32;18.00;99.90
6098;DHT22;3077;50.922;6.584;2023-05-10T13:12:58;18.00;99.90
6098;DHT22;3077;50.922;6.584;2023-05-10T13:15:24;18.00;99.90
6098;DHT22;3077;50.922;6.584;2023-05-10T13:17:50;18.10;99.90
6098;DHT22;3077;50.922;6.584;2023-05-10T13:20:16;17.90;99.90
6098;DHT22;3077;50.922;6.584;2023-05-10T13:22:45;18.00;99.90
6098;DHT22;3077;50.922;6.584;2023-05-10T13:25:11;18.00;99.90
6098;DHT22;3077;50.922;6.584;2023-05-10T13:27:38;17.90;99.90
6098;DHT22;3077;50.922;6.584;2023-05-10T13:30:04;17.80;99.90
6098;DHT22;3077;50.922;6.584;2023-05-10T13:32:30;17.70;99.90
6098;DHT22;3077;50.922;6.584;2023-05-10T13:34:56;17.80;99.90
6098;DHT22;3077;50.922;6.584;2023-05-10T13:37:22;17.80;99.90
6098;DHT22;3077;50.922;6.584;2023-05-10T13:39:48;17.90;99.90
6098;DHT22;3077;50.922;6.584;2023-05-10T13:42:13;18.10;99.90
6098;DHT22;3077;50.922;6.584;2023-05-10T13:44:39;18.10;99.90
6098;DHT22;3077;50.922;6.584;2023-05-10T13:47:05;18.10;99.90
6098;DHT22;3077;50.922;6.584;2023-05-10T13:49:31;18.10;99.90
6098;DHT22;3077;50.922;6.584;2023-05-10T13:51:57;18.20;99.90
6098;DHT22;3077;50.922;6.584;2023-05-10T13:54:23;18.50;99.90
6098;DHT22;3077;50.922;6.584;2023-05-10T13:56:49;18.80;99.90
6098;DHT22;3077;50.922;6.584;2023-05-10T13:59:15;19.40;99.90
6098;DHT22;3077;50.922;6.584;2023-05-10T14:01:41;20.80;99.90
6098;DHT22;3077;50.922;6.584;2023-05-10T14:04:08;22.40;99.90
6098;DHT22;3077;50.922;6.584;2023-05-10T14:06:36;23.40;99.90
6098;DHT22;3077;50.922;6.584;2023-05-10T14:09:02;23.80;99.90
6098;DHT22;3077;50.922;6.584;2023-05-10T14:11:28;23.80;99.90
6098;DHT22;3077;50.922;6.584;2023-05-10T14:13:53;23.60;99.90
6098;DHT22;3077;50.922;6.584;2023-05-10T14:16:19;23.00;99.90
6098;DHT22;3077;50.922;6.584;2023-05-10T14:18:45;22.50;99.90
6098;DHT22;3077;50.922;6.584;2023-05-10T14:21:11;22.20;99.90
6098;DHT22;3077;50.922;6.584;2023-05-10T14:23:37;21.90;99.90
6098;DHT22;3077;50.922;6.584;2023-05-10T14:26:03;21.50;99.90
6098;DHT22;3077;50.922;6.584;2023-05-10T14:28:29;21.30;99.90
6098;DHT22;3077;50.922;6.584;2023-05-10T14:30:54;21.00;99.90
6098;DHT22;3077;50.922;6.584;2023-05-10T14:33:20;20.70;99.90
6098;DHT22;3077;50.922;6.584;2023-05-10T14:35:46;20.50;99.90
6098;DHT22;3077;50.922;6.584;2023-05-10T14:38:13;20.50;99.90
6098;DHT22;3077;50.922;6.584;2023-05-10T14:40:38;20.40;99.90
6098;DHT22;3077;50.922;6.584;2023-05-10T14:43:04;20.20;99.90
6098;DHT22;3077;50.922;6.584;2023-05-10T14:45:30;20.10;99.90
6098;DHT22;3077;50.922;6.584;2023-05-10T14:47:55;19.90;99.90
6098;DHT22;3077;50.922;6.584;2023-05-10T14:50:21;19.90;99.90
6098;DHT22;3077;50.922;6.584;2023-05-10T14:52:46;19.80;99.90
6098;DHT22;3077;50.922;6.584;2023-05-10T14:55:12;19.60;99.90
6098;DHT22;3077;50.922;6.584;2023-05-10T14:57:37;19.30;99.90
6098;DHT22;3077;50.922;6.584;2023-05-10T15:00:03;19.10;99.90
6098;DHT22;3077;50.922;6.584;2023-05-10T15:02:30;19.00;99.90
6098;DHT22;3077;50.922;6.584;2023-05-10T15:04:56;18.90;99.90
6098;DHT22;3077;50.922;6.584;2023-05-10T15:07:23;18.70;99.90
6098;DHT22;3077;50.922;6.584;2023-05-10T15:09:49;18.40;99.90
6098;DHT22;3077;50.922;6.584;2023-05-10T15:12:15;18.20;99.90
6098;DHT22;3077;50.922;6.584;2023-05-10T15:14:40;18.20;99.90
6098;DHT22;3077;50.922;6.584;2023-05-10T15:17:06;18.00;99.90
6098;DHT22;3077;50.922;6.584;2023-05-10T15:19:32;18.00;99.90
6098;DHT22;3077;50.922;6.584;2023-05-10T15:21:58;18.00;99.90
6098;DHT22;3077;50.922;6.584;2023-05-10T15:24:24;18.00;99.90
6098;DHT22;3077;50.922;6.584;2023-05-10T15:26:50;18.00;99.90
6098;DHT22;3077;50.922;6.584;2023-05-10T15:29:15;18.00;99.90
6098;DHT22;3077;50.922;6.584;2023-05-10T15:31:46;18.00;99.90
6098;DHT22;3077;50.922;6.584;2023-05-10T15:34:12;18.00;99.90
6098;DHT22;3077;50.922;6.584;2023-05-10T15:36:38;18.10;99.90
6098;DHT22;3077;50.922;6.584;2023-05-10T15:39:03;18.10;99.90
6098;DHT22;3077;50.922;6.584;2023-05-10T15:41:29;18.20;99.90
6098;DHT22;3077;50.922;6.584;2023-05-10T15:43:55;18.20;99.90
6098;DHT22;3077;50.922;6.584;2023-05-10T15:46:21;18.30;99.90
6098;DHT22;3077;50.922;6.584;2023-05-10T15:48:47;18.50;99.90
6098;DHT22;3077;50.922;6.584;2023-05-10T15:51:12;18.50;99.90
6098;DHT22;3077;50.922;6.584;2023-05-10T15:53:38;18.40;99.90
6098;DHT22;3077;50.922;6.584;2023-05-10T15:56:04;18.40;99.90
6098;DHT22;3077;50.922;6.584;2023-05-10T15:58:30;18.40;99.90
6098;DHT22;3077;50.922;6.584;2023-05-10T16:00:56;18.50;99.90
6098;DHT22;3077;50.922;6.584;2023-05-10T16:03:22;18.60;99.90
6098;DHT22;3077;50.922;6.584;2023-05-10T16:05:48;18.50;99.90
6098;DHT22;3077;50.922;6.584;2023-05-10T16:08:13;18.40;99.90
6098;DHT22;3077;50.922;6.584;2023-05-10T16:10:39;18.30;99.90
6098;DHT22;3077;50.922;6.584;2023-05-10T16:13:05;18.30;99.90
6098;DHT22;3077;50.922;6.584;2023-05-10T16:15:30;18.40;99.90
6098;DHT22;3077;50.922;6.584;2023-05-10T16:17:56;18.30;99.90
6098;DHT22;3077;50.922;6.584;2023-05-10T16:20:22;18.30;99.90